SBOSBO SEA / KSEA
Speedbird OnlineSpeedbird Online SEA / KSEA

Seattle Tacoma International Airport
23:57 11.5°C

Location Seattle, United States
Latitude: 47.449001
Longitude: -122.308998
Web Airport Website | Wikipedia
Altitude 132 Meter / 433 Feet
Distance 7,723 KM / 4,799 Miles
from London.
Time Zone UTC -7 hours (America/Los_Angeles)
Codes IATA: SEA
ICAO: KSEA
Currency £1 equals USD 1.13
Runways
RunwayLength (m)Surface
16C2873CONC-F
16L3627Asphalt
16R2873Concrete
34C2873CONC-F
34L2873Concrete
34R3627Asphalt
high0
lower0
Radio
TypeDescriptionFrequency
A/DAPP/DEP119.2
CLDCLNC DEL128
CTAFOshosh traffic118.5
D-ATISDigital ATIS118
GNDSeattle Ground121.7
TWRSeattle Tower119.9
UNICUNICOM122.95
Live ATC
METAR KSEA 060553Z 05003KT 5SM BR FEW010 14/12 A3018 RMK AO2 SLP224 T01390122 10178 20133 50003
TAF KSEA 060538Z 0606/0712 02003KT 5SM BR SCT012 TEMPO 0607/0610 4SM BR BKN011 FM061000 01004KT 4SM BR OVC010 FM062000 35007KT P6SM SCT012 SCT250 FM062300 34005KT P6SM FEW250
Weather As Of 05 Oct 2022 23:57
Description Broken clouds
Wind 2 km/h from North (356°)
Cloud Cover 78%
Precipitation Rain: none, Snow: none
Sunrise 07:13
Sunset 18:41
Lounges The Club - SEA , International Terminal
Alaska Lounge, Main Terminal
Alaska Lounge, Main Terminal
Alaska Lounge, North Satellite
British Airways Lounge (Open), South Satellite
Rotations During the last 90 days there were
145 flights from LHR
148 flights to LHR


© 2017-2022 Speedbird Online